Terminal Aerodrome Forecast
Issued by NWS

Home | Current Version | Previous Version | Text Only | Print | Product List | Glossary On
Versions: 1 2 3 4 5 6 7 8 9 10 11 12 13 14 15 16
000
FTUS43 KDMX 250539 AAA
TAFFOD
TAF AMD
KFOD 250539Z 2506/2606 00000KT 2SM BR SKC
      TEMPO 2507/2510 3/4SM BR
     FM251500 27007KT P6SM SCT120 SCT250
     FM260200 05005KT P6SM SCT120 BKN250=

USA.gov is the U.S. government's official web portal to all federal, state and local government web resources and services.